Time;durP1;ratioP1;P1;durP2;ratioP2;P2;SDS_P1;SDS_P2;PMS_P1;PMS_P2;Temp;Humidity;BMP_temperature;BMP_pressure;BME280_temperature;BME280_humidity;BME280_pressure;Samples;Min_cycle;Max_cycle;Signal;HPM_P1;HPM_P2
2021/07/09 00:01:28;;;;;;;3.45;3.25;;;28.00;53.40;;;;;;5009065;28;20602;-63
2021/07/09 00:03:57;;;;;;;2.78;2.67;;;28.00;53.40;;;;;;5009254;28;20423;-63
2021/07/09 00:06:25;;;;;;;3.40;3.10;;;27.90;53.40;;;;;;5009304;28;20054;-63
2021/07/09 00:08:52;;;;;;;3.25;3.00;;;27.90;53.40;;;;;;5008684;28;20085;-64
2021/07/09 00:11:19;;;;;;;3.00;2.80;;;27.90;53.40;;;;;;5008711;28;20132;-63
2021/07/09 00:13:46;;;;;;;3.40;3.20;;;27.90;53.40;;;;;;5008684;28;20084;-65
2021/07/09 00:16:16;;;;;;;2.95;2.75;;;27.90;53.40;;;;;;5008565;28;20100;-63
2021/07/09 00:18:45;;;;;;;3.35;3.10;;;27.90;53.40;;;;;;5007948;28;20042;-63
2021/07/09 00:21:13;;;;;;;3.23;3.03;;;27.90;53.40;;;;;;5008413;28;20096;-63
2021/07/09 00:23:42;;;;;;;3.78;3.35;;;27.90;53.40;;;;;;5008637;28;20050;-63
2021/07/09 00:26:09;;;;;;;3.22;2.97;;;27.90;53.50;;;;;;5008814;28;20133;-63
2021/07/09 00:28:36;;;;;;;2.97;2.78;;;27.90;53.50;;;;;;5008528;28;20081;-63
2021/07/09 00:31:03;;;;;;;3.08;2.88;;;27.90;53.50;;;;;;5008928;28;20258;-63
2021/07/09 00:33:30;;;;;;;3.08;2.88;;;27.90;53.50;;;;;;5007042;28;20045;-63
2021/07/09 00:35:57;;;;;;;3.22;3.03;;;27.90;53.50;;;;;;5008772;28;20085;-63
2021/07/09 00:38:24;;;;;;;3.22;3.03;;;27.90;53.50;;;;;;5008053;28;20056;-63
2021/07/09 00:40:52;;;;;;;3.17;2.97;;;27.90;53.50;;;;;;5008499;28;20137;-63
2021/07/09 00:43:19;;;;;;;3.05;2.85;;;27.90;53.50;;;;;;5008068;28;20146;-63
2021/07/09 00:45:47;;;;;;;3.38;3.15;;;27.90;53.50;;;;;;5008554;28;20096;-63
2021/07/09 00:48:14;;;;;;;3.17;2.97;;;27.90;53.50;;;;;;5007201;28;20114;-63
2021/07/09 00:50:41;;;;;;;2.92;2.72;;;27.90;53.50;;;;;;5008618;28;20448;-63
2021/07/09 00:53:08;;;;;;;3.42;2.83;;;27.90;53.50;;;;;;5008266;28;20114;-63
2021/07/09 00:55:36;;;;;;;2.97;2.78;;;27.80;53.50;;;;;;5007679;28;20049;-63
2021/07/09 00:58:04;;;;;;;2.90;2.70;;;27.90;53.50;;;;;;5007279;28;20049;-63
2021/07/09 01:00:32;;;;;;;2.78;2.50;;;27.90;53.50;;;;;;5008277;28;20046;-64
2021/07/09 01:02:59;;;;;;;2.72;2.53;;;27.90;53.60;;;;;;5008976;28;20050;-63
2021/07/09 01:05:26;;;;;;;2.90;2.70;;;27.90;53.60;;;;;;5008258;28;20128;-63
2021/07/09 01:07:53;;;;;;;3.22;3.03;;;27.90;53.60;;;;;;5006803;28;20684;-63
2021/07/09 01:10:21;;;;;;;3.33;3.13;;;27.90;53.60;;;;;;5008468;28;20046;-63
2021/07/09 01:12:48;;;;;;;3.17;2.95;;;27.90;53.60;;;;;;5007869;28;20081;-63
2021/07/09 01:15:19;;;;;;;3.20;3.00;;;27.90;53.60;;;;;;5008191;28;20138;-63
2021/07/09 01:17:47;;;;;;;3.00;2.80;;;27.90;53.60;;;;;;4990906;28;20049;-63
2021/07/09 01:20:16;;;;;;;3.00;2.80;;;27.90;53.60;;;;;;5007665;28;20054;-63
2021/07/09 01:22:45;;;;;;;2.85;2.65;;;27.80;53.50;;;;;;5008557;28;20054;-63
2021/07/09 01:25:18;;;;;;;2.80;2.65;;;27.90;53.60;;;;;;5007904;28;20074;-63
2021/07/09 01:27:51;;;;;;;3.17;2.97;;;27.90;53.60;;;;;;5008534;28;20046;-62
2021/07/09 01:30:20;;;;;;;2.75;2.55;;;27.90;53.60;;;;;;5008383;28;20054;-63
2021/07/09 01:32:49;;;;;;;2.63;2.42;;;27.80;53.50;;;;;;5011973;28;20046;-63
2021/07/09 01:35:18;;;;;;;2.80;2.60;;;27.90;53.60;;;;;;5026769;28;20104;-63
2021/07/09 01:38:07;;;;;;;2.92;2.72;;;27.80;53.60;;;;;;5011508;28;20140;-63
2021/07/09 01:40:36;;;;;;;2.58;2.45;;;27.80;53.50;;;;;;5011762;28;20101;-65
2021/07/09 01:43:04;;;;;;;2.55;2.45;;;27.80;53.60;;;;;;5011683;28;20049;-63
2021/07/09 01:45:32;;;;;;;2.70;2.40;;;27.80;54.10;;;;;;5011737;28;20137;-63
2021/07/09 01:47:59;;;;;;;2.83;2.63;;;27.80;53.60;;;;;;5012129;28;20046;-64
2021/07/09 01:50:27;;;;;;;3.25;3.03;;;27.80;53.60;;;;;;5011235;28;20056;-63
2021/07/09 01:52:54;;;;;;;2.53;2.42;;;27.80;53.60;;;;;;5011665;28;20078;-63
2021/07/09 01:55:22;;;;;;;2.83;2.63;;;27.80;53.60;;;;;;5010982;28;20045;-63
2021/07/09 01:57:49;;;;;;;2.85;2.65;;;27.80;53.60;;;;;;5010338;28;20073;-63
2021/07/09 02:00:19;;;;;;;2.70;2.50;;;27.90;53.60;;;;;;5011231;28;20148;-63
2021/07/09 02:02:47;;;;;;;2.40;2.30;;;27.90;53.60;;;;;;5011051;28;20133;-63
2021/07/09 02:05:18;;;;;;;2.70;2.50;;;27.80;53.60;;;;;;5011448;28;20496;-63
2021/07/09 02:07:47;;;;;;;3.03;2.83;;;27.80;53.60;;;;;;5009877;28;20049;-63
2021/07/09 02:10:17;;;;;;;2.70;2.50;;;27.90;53.60;;;;;;5011144;28;20049;-63
2021/07/09 02:12:44;;;;;;;2.90;2.70;;;27.90;53.60;;;;;;5009716;28;20074;-63
2021/07/09 02:15:16;;;;;;;3.00;2.80;;;27.80;53.60;;;;;;5010809;28;20128;-64
2021/07/09 02:17:44;;;;;;;2.50;2.40;;;27.80;53.60;;;;;;5011659;28;20077;-63
2021/07/09 02:20:16;;;;;;;2.78;2.58;;;27.80;53.60;;;;;;5010356;28;20052;-63
2021/07/09 02:22:44;;;;;;;3.05;2.75;;;27.80;53.60;;;;;;5011321;28;20084;-63
2021/07/09 02:25:12;;;;;;;3.03;2.83;;;27.80;53.60;;;;;;5010908;28;20071;-63
2021/07/09 02:27:43;;;;;;;2.60;2.40;;;27.80;53.60;;;;;;5010596;28;20050;-63
2021/07/09 02:30:13;;;;;;;2.72;2.53;;;27.80;53.60;;;;;;5010878;28;20712;-63
2021/07/09 02:32:40;;;;;;;3.05;2.85;;;27.80;53.60;;;;;;5010676;28;20080;-63
2021/07/09 02:35:10;;;;;;;2.72;2.53;;;27.80;53.60;;;;;;5009006;28;20057;-64
2021/07/09 02:37:38;;;;;;;2.38;2.28;;;27.80;53.60;;;;;;5010544;28;20042;-63
2021/07/09 02:40:07;;;;;;;2.42;2.33;;;27.80;53.60;;;;;;5010509;28;20136;-63
2021/07/09 02:42:34;;;;;;;2.20;2.10;;;27.80;53.60;;;;;;5010066;28;20048;-64
2021/07/09 02:45:01;;;;;;;3.00;2.80;;;27.80;53.60;;;;;;5010022;28;20567;-63
2021/07/09 02:47:28;;;;;;;2.72;2.58;;;27.80;53.60;;;;;;5010449;28;20130;-63
2021/07/09 02:49:56;;;;;;;3.10;2.90;;;27.80;53.60;;;;;;5009812;28;20085;-63
2021/07/09 02:52:23;;;;;;;2.80;2.60;;;27.80;53.60;;;;;;5010385;28;20696;-63
2021/07/09 02:54:50;;;;;;;2.72;2.53;;;27.80;53.60;;;;;;5008985;28;20046;-63
2021/07/09 02:57:17;;;;;;;2.35;2.25;;;27.80;53.60;;;;;;5010381;28;20068;-63
2021/07/09 02:59:44;;;;;;;2.85;2.65;;;27.80;53.60;;;;;;5010150;28;20129;-63
2021/07/09 03:02:11;;;;;;;2.53;2.33;;;27.80;53.60;;;;;;5008328;28;20132;-64
2021/07/09 03:04:39;;;;;;;2.67;2.50;;;27.80;53.60;;;;;;5010393;28;20125;-63
2021/07/09 03:07:06;;;;;;;2.72;2.53;;;27.80;53.60;;;;;;5009951;28;20081;-63
2021/07/09 03:09:35;;;;;;;2.58;2.42;;;27.80;53.60;;;;;;5010254;28;20400;-63
2021/07/09 03:12:02;;;;;;;2.83;2.45;;;27.80;53.60;;;;;;5009491;28;20084;-63
2021/07/09 03:14:29;;;;;;;2.60;2.40;;;27.80;53.60;;;;;;5009579;28;20484;-63
2021/07/09 03:16:56;;;;;;;2.20;2.00;;;27.80;54.20;;;;;;5009882;28;20471;-65
2021/07/09 03:19:24;;;;;;;2.80;2.60;;;27.80;53.60;;;;;;5009401;28;20080;-63
2021/07/09 03:21:52;;;;;;;2.30;2.20;;;27.80;53.60;;;;;;5010302;28;20080;-64
2021/07/09 03:24:19;;;;;;;2.35;2.25;;;27.80;53.60;;;;;;5009627;28;20132;-63
2021/07/09 03:26:46;;;;;;;2.53;2.33;;;27.80;53.60;;;;;;5008673;28;20120;-63
2021/07/09 03:29:13;;;;;;;2.78;2.58;;;27.80;53.60;;;;;;5010073;28;20085;-63
2021/07/09 03:31:40;;;;;;;2.80;2.60;;;27.80;53.60;;;;;;5024270;28;20089;-64
2021/07/09 03:34:08;;;;;;;2.50;2.40;;;27.80;53.60;;;;;;5009721;28;20045;-63
2021/07/09 03:36:35;;;;;;;2.50;2.40;;;27.80;53.60;;;;;;5009073;28;20487;-63
2021/07/09 03:39:02;;;;;;;2.80;2.60;;;27.80;53.60;;;;;;5041171;28;20077;-64
2021/07/09 03:41:30;;;;;;;2.50;2.40;;;27.80;53.60;;;;;;5009211;28;20111;-63
2021/07/09 03:43:57;;;;;;;2.33;2.22;;;27.80;53.60;;;;;;5009482;28;20046;-63
2021/07/09 03:46:24;;;;;;;2.70;2.50;;;27.80;53.50;;;;;;5008709;28;20060;-63
2021/07/09 03:48:51;;;;;;;2.60;2.40;;;27.80;53.50;;;;;;5009518;28;20189;-63
2021/07/09 03:51:18;;;;;;;2.35;2.22;;;27.80;53.50;;;;;;5008949;28;20507;-63
2021/07/09 03:53:45;;;;;;;2.75;2.55;;;27.90;53.60;;;;;;5008450;28;20085;-63
2021/07/09 03:56:12;;;;;;;2.40;2.30;;;27.90;53.50;;;;;;5024314;28;20058;-63
2021/07/09 03:58:39;;;;;;;2.30;2.20;;;27.90;53.50;;;;;;5008870;28;20210;-63
2021/07/09 04:01:06;;;;;;;2.42;2.22;;;27.90;53.50;;;;;;5009031;28;20096;-63
2021/07/09 04:03:33;;;;;;;2.45;2.30;;;27.90;54.00;;;;;;5008739;28;20050;-63
2021/07/09 04:06:00;;;;;;;1.95;1.85;;;27.90;53.40;;;;;;5009479;28;20161;-63
2021/07/09 04:08:28;;;;;;;2.25;2.15;;;27.90;53.30;;;;;;5008899;28;20124;-64
2021/07/09 04:10:55;;;;;;;2.15;2.00;;;28.00;53.40;;;;;;4991661;28;20073;-63
2021/07/09 04:13:23;;;;;;;2.55;2.35;;;28.00;53.30;;;;;;5007985;28;20129;-63
2021/07/09 04:15:50;;;;;;;2.35;2.15;;;28.00;53.30;;;;;;5006581;28;20050;-63
2021/07/09 04:18:17;;;;;;;1.90;1.80;;;28.00;53.20;;;;;;5006694;28;20080;-63
2021/07/09 04:20:44;;;;;;;2.35;2.10;;;28.00;53.20;;;;;;5038130;28;20747;-63
2021/07/09 04:23:11;;;;;;;2.17;2.08;;;28.00;53.10;;;;;;5006217;28;20065;-63
2021/07/09 04:25:38;;;;;;;2.45;2.35;;;28.00;53.10;;;;;;5007251;28;20120;-63
2021/07/09 04:28:06;;;;;;;2.65;2.45;;;28.10;53.10;;;;;;5006740;28;20455;-63
2021/07/09 04:30:33;;;;;;;2.58;2.38;;;28.10;53.00;;;;;;5006955;28;20484;-63
2021/07/09 04:33:00;;;;;;;1.98;1.88;;;28.10;53.00;;;;;;5005723;28;20136;-63
2021/07/09 04:35:28;;;;;;;2.15;2.05;;;28.10;52.90;;;;;;5006765;28;20096;-63
2021/07/09 04:37:55;;;;;;;1.92;1.85;;;28.10;52.80;;;;;;5005621;28;20052;-63
2021/07/09 04:40:22;;;;;;;2.17;2.08;;;28.10;52.80;;;;;;5007049;28;20770;-63
2021/07/09 04:42:49;;;;;;;2.58;2.45;;;28.20;52.80;;;;;;5006039;28;20077;-63
2021/07/09 04:45:17;;;;;;;2.20;2.10;;;28.20;52.70;;;;;;5005241;28;20045;-63
2021/07/09 04:47:45;;;;;;;2.03;1.92;;;28.20;52.70;;;;;;5005471;28;20085;-63
2021/07/09 04:50:12;;;;;;;2.50;2.30;;;28.30;52.70;;;;;;5007820;28;20498;-63
2021/07/09 04:52:43;;;;;;;2.40;2.30;;;28.30;52.60;;;;;;5023137;28;20576;-63
2021/07/09 04:55:12;;;;;;;2.33;2.22;;;28.30;52.60;;;;;;5006478;28;20103;-64
2021/07/09 04:57:39;;;;;;;2.10;2.00;;;28.30;52.60;;;;;;5007583;28;20056;-62
2021/07/09 05:00:07;;;;;;;2.08;1.98;;;28.30;52.60;;;;;;5008104;28;20377;-62
2021/07/09 05:02:38;;;;;;;2.55;2.35;;;28.30;52.60;;;;;;5007712;28;20140;-62
2021/07/09 05:05:13;;;;;;;2.40;2.30;;;28.30;52.50;;;;;;5010790;28;20081;-62
2021/07/09 05:07:46;;;;;;;1.85;1.75;;;28.30;52.40;;;;;;5010908;28;21689;-62
2021/07/09 05:10:14;;;;;;;2.80;2.60;;;28.20;52.60;;;;;;5010749;28;20073;-62
2021/07/09 05:12:41;;;;;;;2.35;2.15;;;28.10;52.90;;;;;;5010084;28;20129;-64
2021/07/09 05:15:09;;;;;;;3.03;2.83;;;27.80;53.20;;;;;;5025818;28;20160;-63
2021/07/09 05:17:36;;;;;;;2.83;2.63;;;27.60;53.80;;;;;;5009407;28;20491;-62
2021/07/09 05:20:04;;;;;;;3.92;3.22;;;27.30;54.60;;;;;;5007051;28;20054;-62
2021/07/09 05:22:31;;;;;;;3.25;2.80;;;26.90;55.70;;;;;;5012111;28;20453;-62
2021/07/09 05:24:59;;;;;;;3.10;2.90;;;26.70;56.50;;;;;;5005504;28;20140;-64
2021/07/09 05:27:28;;;;;;;3.25;2.95;;;26.40;57.50;;;;;;5015782;28;20554;-62
2021/07/09 05:29:56;;;;;;;2.90;2.63;;;26.20;58.10;;;;;;5009730;28;20124;-63
2021/07/09 05:32:25;;;;;;;3.08;2.88;;;25.90;58.40;;;;;;5003490;28;20045;-64
2021/07/09 05:34:54;;;;;;;3.40;3.10;;;25.70;58.80;;;;;;5015199;28;20084;-65
2021/07/09 05:37:22;;;;;;;2.97;2.78;;;25.50;58.90;;;;;;5008906;28;20052;-63
2021/07/09 05:39:50;;;;;;;2.70;2.50;;;25.30;59.30;;;;;;5009555;28;20093;-63
2021/07/09 05:42:17;;;;;;;3.90;2.75;;;25.10;59.60;;;;;;5005255;28;20066;-63
2021/07/09 05:44:45;;;;;;;3.15;2.92;;;24.80;60.40;;;;;;5003487;28;20130;-63
2021/07/09 05:47:13;;;;;;;3.75;3.45;;;24.60;60.10;;;;;;5004270;28;20054;-64
2021/07/09 05:49:40;;;;;;;3.35;3.15;;;24.50;60.50;;;;;;4988774;28;20069;-64
2021/07/09 05:52:09;;;;;;;3.10;2.90;;;24.30;60.80;;;;;;5007752;28;20057;-65
2021/07/09 05:54:36;;;;;;;3.17;2.97;;;24.20;61.10;;;;;;5009288;28;20038;-63
2021/07/09 05:57:04;;;;;;;4.13;3.83;;;24.10;61.30;;;;;;5009824;28;20752;-65
2021/07/09 05:59:32;;;;;;;3.83;3.53;;;24.00;61.50;;;;;;5006466;28;20100;-63
2021/07/09 06:01:59;;;;;;;3.70;3.40;;;23.90;61.90;;;;;;5012795;28;20053;-63
2021/07/09 06:04:28;;;;;;;3.65;3.35;;;23.90;62.20;;;;;;5011805;28;20042;-63
2021/07/09 06:06:55;;;;;;;3.67;3.38;;;23.90;62.50;;;;;;5015493;28;20761;-64
2021/07/09 06:09:22;;;;;;;3.70;3.40;;;23.80;62.70;;;;;;5014104;28;20065;-63
2021/07/09 06:11:50;;;;;;;4.32;3.90;;;23.80;62.80;;;;;;5009142;28;20083;-63
2021/07/09 06:14:17;;;;;;;3.72;3.42;;;23.80;63.00;;;;;;5013000;28;20052;-64
2021/07/09 06:17:49;;;;;;;4.50;4.07;;;23.80;63.10;;;;;;5008535;28;20577;-64
2021/07/09 06:20:49;;;;;;;6.75;5.90;;;23.70;63.30;;;;;;5005862;28;20399;-65
2021/07/09 06:23:16;;;;;;;6.13;5.53;;;23.80;64.20;;;;;;5017190;28;20120;-66
2021/07/09 06:25:43;;;;;;;6.40;5.30;;;23.70;64.20;;;;;;5011628;28;20135;-66
2021/07/09 06:28:10;;;;;;;7.63;5.25;;;23.70;64.20;;;;;;5017572;28;20087;-65
2021/07/09 06:31:10;;;;;;;6.22;5.32;;;23.80;64.60;;;;;;5010581;28;20121;-64
2021/07/09 06:33:37;;;;;;;6.32;5.72;;;23.80;65.10;;;;;;5003207;28;20415;-64
2021/07/09 06:36:05;;;;;;;7.60;6.72;;;23.90;65.40;;;;;;5017552;28;20502;-62
2021/07/09 06:38:32;;;;;;;6.90;6.00;;;23.90;65.30;;;;;;5003976;28;20136;-62
2021/07/09 06:40:59;;;;;;;5.90;5.30;;;24.00;65.20;;;;;;5009136;28;20053;-63
2021/07/09 06:43:27;;;;;;;6.65;6.05;;;24.00;65.00;;;;;;5017329;28;20041;-64
2021/07/09 06:45:54;;;;;;;6.35;5.75;;;24.10;64.90;;;;;;5008497;28;20069;-63
2021/07/09 06:48:21;;;;;;;9.45;5.68;;;24.10;64.80;;;;;;5009770;28;20053;-62
2021/07/09 06:50:49;;;;;;;6.15;5.07;;;24.10;64.70;;;;;;5009674;28;20377;-61
2021/07/09 06:53:16;;;;;;;6.70;5.53;;;24.10;64.70;;;;;;5010517;28;20057;-63
2021/07/09 06:55:44;;;;;;;5.78;5.28;;;24.00;64.70;;;;;;5013790;28;20040;-64
2021/07/09 06:58:11;;;;;;;6.70;5.97;;;24.00;64.90;;;;;;5007529;28;20133;-63
2021/07/09 07:00:38;;;;;;;6.63;6.03;;;24.00;65.30;;;;;;5006044;28;20080;-64
2021/07/09 07:03:06;;;;;;;7.10;5.82;;;24.00;65.50;;;;;;5006046;28;20148;-63
2021/07/09 07:05:34;;;;;;;6.05;5.45;;;24.00;65.80;;;;;;5005036;28;20054;-65
2021/07/09 07:08:18;;;;;;;6.22;5.63;;;24.00;66.10;;;;;;5005421;28;20046;-62
2021/07/09 07:10:46;;;;;;;6.55;5.68;;;24.00;66.20;;;;;;5007764;28;20046;-63
2021/07/09 07:13:13;;;;;;;5.78;5.07;;;24.00;66.50;;;;;;5005440;28;20056;-65
2021/07/09 07:15:41;;;;;;;8.18;6.05;;;24.00;66.30;;;;;;5032770;28;20361;-63
2021/07/09 07:18:10;;;;;;;14.35;7.40;;;24.00;66.50;;;;;;5003630;28;20059;-63
2021/07/09 07:20:42;;;;;;;9.07;6.28;;;24.00;66.80;;;;;;5002708;28;20103;-63
2021/07/09 07:23:10;;;;;;;13.73;7.30;;;24.00;66.60;;;;;;5006951;28;20050;-64
2021/07/09 07:25:39;;;;;;;12.38;6.50;;;24.10;66.60;;;;;;5009864;28;20462;-64
2021/07/09 07:28:07;;;;;;;10.85;6.85;;;24.10;66.40;;;;;;5003072;28;20128;-64
2021/07/09 07:30:35;;;;;;;10.23;7.70;;;24.10;66.60;;;;;;5009391;28;20042;-65
2021/07/09 07:33:04;;;;;;;10.68;7.20;;;24.10;66.60;;;;;;5006052;28;20135;-62
2021/07/09 07:35:31;;;;;;;12.40;7.10;;;24.10;66.70;;;;;;5009518;28;20042;-62
2021/07/09 07:37:59;;;;;;;12.68;7.53;;;24.20;66.40;;;;;;5012649;28;20111;-62
2021/07/09 07:40:26;;;;;;;8.07;6.50;;;24.20;66.10;;;;;;5011168;28;20077;-63
2021/07/09 07:42:54;;;;;;;7.00;6.28;;;24.30;66.00;;;;;;5007978;28;20120;-63
2021/07/09 07:45:21;;;;;;;13.02;7.60;;;24.30;65.90;;;;;;5011075;28;20172;-66
2021/07/09 07:47:48;;;;;;;13.13;7.47;;;24.30;65.90;;;;;;5005405;28;20144;-64
2021/07/09 07:50:17;;;;;;;12.25;6.95;;;24.30;66.50;;;;;;5001719;28;20202;-64
2021/07/09 07:52:45;;;;;;;11.33;6.97;;;24.40;66.50;;;;;;5006333;28;20054;-64
2021/07/09 07:55:12;;;;;;;8.10;6.60;;;24.40;66.50;;;;;;5007457;28;20049;-65
2021/07/09 07:57:39;;;;;;;10.88;7.10;;;24.40;66.60;;;;;;5007011;28;20136;-64
2021/07/09 08:00:07;;;;;;;7.57;6.43;;;24.50;66.80;;;;;;5005034;28;20052;-64
2021/07/09 08:02:35;;;;;;;7.43;6.70;;;24.50;66.70;;;;;;5007322;28;20078;-64
2021/07/09 08:05:05;;;;;;;8.60;6.90;;;24.50;66.70;;;;;;5010426;28;21546;-65
2021/07/09 08:07:32;;;;;;;10.75;7.20;;;24.50;66.70;;;;;;5006497;28;20124;-62
2021/07/09 08:09:59;;;;;;;7.07;6.32;;;24.60;66.40;;;;;;5015869;28;20128;-63
2021/07/09 08:12:26;;;;;;;8.75;7.53;;;24.60;66.10;;;;;;5007318;28;20161;-65
2021/07/09 08:14:53;;;;;;;8.85;7.60;;;24.60;66.00;;;;;;5001104;28;20519;-63
2021/07/09 08:17:21;;;;;;;9.30;6.85;;;24.70;66.50;;;;;;5005524;28;20088;-66
2021/07/09 08:19:48;;;;;;;10.00;7.57;;;24.70;66.50;;;;;;5006058;28;20793;-65
2021/07/09 08:22:16;;;;;;;10.50;7.80;;;24.80;66.50;;;;;;5001850;28;20077;-67
2021/07/09 08:24:43;;;;;;;10.43;7.57;;;24.80;66.50;;;;;;5003314;28;20081;-64
2021/07/09 08:27:10;;;;;;;11.18;7.70;;;24.80;66.20;;;;;;5005574;28;20137;-65
2021/07/09 08:29:38;;;;;;;9.40;6.85;;;24.80;66.10;;;;;;5007644;28;20077;-68
2021/07/09 08:32:05;;;;;;;8.60;7.28;;;24.80;66.10;;;;;;5006418;28;20081;-64
2021/07/09 08:34:32;;;;;;;9.98;6.90;;;24.70;66.00;;;;;;5008117;28;20134;-67
2021/07/09 08:37:00;;;;;;;8.95;7.55;;;24.70;65.90;;;;;;5031818;28;20748;-64
2021/07/09 08:39:27;;;;;;;8.88;7.82;;;24.70;65.80;;;;;;5002615;28;20976;-65
2021/07/09 08:41:58;;;;;;;8.27;7.47;;;24.70;66.00;;;;;;5008005;28;20057;-66
2021/07/09 08:44:25;;;;;;;9.23;7.97;;;24.70;65.90;;;;;;5003672;28;20041;-65
2021/07/09 08:46:55;;;;;;;8.38;7.53;;;24.70;65.80;;;;;;5001521;28;20124;-64
2021/07/09 08:49:23;;;;;;;;;;;24.70;66.00;;;;;;5001938;28;20046;-65
2021/07/09 08:51:51;;;;;;;10.57;7.10;;;24.70;65.90;;;;;;5002155;28;19922;-66
2021/07/09 08:54:21;;;;;;;7.43;6.68;;;24.70;65.90;;;;;;5002405;28;20056;-64
2021/07/09 08:56:51;;;;;;;8.45;7.43;;;24.70;65.80;;;;;;5009049;28;20426;-63
2021/07/09 08:59:20;;;;;;;9.88;7.70;;;24.70;65.80;;;;;;5014306;28;20546;-64
2021/07/09 09:01:57;;;;;;;11.68;7.35;;;24.70;65.80;;;;;;4998292;28;20214;-66
2021/07/09 09:04:28;;;;;;;11.07;7.43;;;24.70;65.60;;;;;;5004720;28;20053;-65
2021/07/09 09:07:04;;;;;;;9.07;6.90;;;24.70;65.50;;;;;;5016852;28;20582;-65
2021/07/09 09:09:34;;;;;;;8.00;7.20;;;24.70;65.50;;;;;;5007448;28;20038;-66
2021/07/09 09:12:05;;;;;;;9.05;7.10;;;24.70;65.60;;;;;;5005963;28;20092;-66
2021/07/09 09:14:35;;;;;;;10.15;7.60;;;24.70;65.60;;;;;;5009747;28;20046;-62
2021/07/09 09:17:32;;;;;;;14.10;7.43;;;24.70;65.30;;;;;;5008616;28;20455;-65
2021/07/09 09:20:16;;;;;;;11.23;7.03;;;24.70;65.00;;;;;;5005809;28;20128;-65
2021/07/09 09:22:57;;;;;;;7.57;6.70;;;24.70;65.10;;;;;;5005680;28;21398;-63
2021/07/09 09:25:30;;;;;;;11.55;7.07;;;24.70;65.30;;;;;;5004501;28;20081;-65
2021/07/09 09:28:08;;;;;;;7.78;6.68;;;24.60;65.10;;;;;;5005581;28;20054;-66
2021/07/09 09:30:36;;;;;;;12.55;7.40;;;24.60;65.10;;;;;;5005265;28;20605;-66
2021/07/09 09:33:06;;;;;;;12.18;7.85;;;24.60;65.50;;;;;;5001825;28;20077;-64
2021/07/09 09:35:37;;;;;;;16.77;7.40;;;24.60;65.50;;;;;;5006647;28;20038;-65
2021/07/09 09:38:07;;;;;;;12.88;7.95;;;24.60;65.40;;;;;;5003121;28;20080;-66
2021/07/09 09:40:35;;;;;;;11.55;7.10;;;24.60;65.60;;;;;;5004085;28;20038;-65
2021/07/09 09:43:10;;;;;;;8.48;7.32;;;24.50;65.40;;;;;;5005415;28;20127;-63
2021/07/09 09:45:39;;;;;;;11.50;6.82;;;24.50;65.30;;;;;;5007293;28;20046;-66
2021/07/09 09:48:13;;;;;;;11.85;7.78;;;24.50;65.30;;;;;;5013919;28;20146;-66
2021/07/09 09:50:51;;;;;;;14.77;7.57;;;24.50;65.30;;;;;;5003477;28;20042;-65
2021/07/09 09:53:33;;;;;;;13.23;7.22;;;24.50;65.40;;;;;;5007967;28;20042;-64
2021/07/09 09:56:06;;;;;;;8.25;6.13;;;24.50;65.30;;;;;;5006768;28;20118;-65
2021/07/09 09:58:34;;;;;;;8.77;6.90;;;24.50;65.10;;;;;;5007240;28;20042;-64
2021/07/09 10:01:01;;;;;;;8.73;6.80;;;24.50;65.40;;;;;;5005598;28;20125;-66
2021/07/09 10:03:28;;;;;;;9.38;6.55;;;24.50;65.10;;;;;;5039372;28;20042;-63
2021/07/09 10:05:59;;;;;;;10.40;6.53;;;24.50;65.00;;;;;;5005853;28;20041;-65
2021/07/09 10:08:27;;;;;;;11.10;6.65;;;24.60;65.00;;;;;;5008753;28;20435;-64
2021/07/09 10:10:54;;;;;;;9.57;6.68;;;24.50;64.80;;;;;;5005980;28;20045;-64
2021/07/09 10:13:24;;;;;;;8.18;5.53;;;24.50;64.80;;;;;;5010385;28;20052;-66
2021/07/09 10:15:54;;;;;;;7.93;6.20;;;24.50;64.70;;;;;;5011126;28;20048;-66
2021/07/09 10:18:22;;;;;;;10.65;6.20;;;24.50;64.70;;;;;;5017929;28;20065;-64
2021/07/09 10:20:50;;;;;;;8.60;6.35;;;24.60;64.70;;;;;;5013900;28;20048;-64
2021/07/09 10:23:20;;;;;;;6.88;6.18;;;24.60;64.60;;;;;;5021358;28;20057;-64
2021/07/09 10:25:49;;;;;;;8.73;6.87;;;24.60;64.50;;;;;;5009360;28;20408;-64
2021/07/09 10:28:21;;;;;;;6.83;5.60;;;24.60;64.20;;;;;;5005837;28;20157;-64
2021/07/09 10:30:52;;;;;;;8.80;6.10;;;24.50;64.20;;;;;;5001821;28;20040;-65
2021/07/09 10:33:34;;;;;;;9.82;6.80;;;24.50;64.30;;;;;;5008356;28;20056;-65
2021/07/09 10:36:27;;;;;;;7.45;6.53;;;24.50;64.30;;;;;;5007667;28;20696;-65
2021/07/09 10:38:55;;;;;;;9.05;5.93;;;24.50;64.40;;;;;;5008634;28;20092;-64
2021/07/09 10:41:24;;;;;;;7.18;6.03;;;24.50;64.50;;;;;;4996036;28;20521;-63
2021/07/09 10:44:13;;;;;;;6.68;5.05;;;24.50;64.60;;;;;;5007002;28;20061;-65
2021/07/09 10:46:42;;;;;;;7.47;5.63;;;24.50;64.50;;;;;;5006958;28;20053;-62
2021/07/09 10:49:10;;;;;;;10.52;6.18;;;24.50;64.60;;;;;;5007478;28;20056;-62
2021/07/09 10:51:53;;;;;;;6.20;4.80;;;24.50;64.60;;;;;;5005446;28;20049;-65
2021/07/09 10:54:28;;;;;;;8.55;5.60;;;24.50;64.40;;;;;;5010778;28;20054;-64
2021/07/09 10:57:22;;;;;;;6.03;5.43;;;24.50;64.40;;;;;;5008178;28;20045;-63
2021/07/09 11:00:23;;;;;;;6.97;5.50;;;24.50;64.70;;;;;;5008555;28;20111;-64
2021/07/09 11:03:04;;;;;;;8.20;5.75;;;24.50;64.90;;;;;;5010593;28;20125;-63
2021/07/09 11:05:56;;;;;;;5.65;5.03;;;24.50;65.00;;;;;;5002895;28;20049;-63
2021/07/09 11:08:40;;;;;;;7.07;5.10;;;24.60;65.10;;;;;;5012923;28;20077;-62
2021/07/09 11:11:13;;;;;;;8.05;5.07;;;24.60;64.80;;;;;;5000985;28;20775;-66
2021/07/09 11:13:49;;;;;;;5.53;4.93;;;24.60;64.70;;;;;;5006544;28;20038;-64
2021/07/09 11:16:37;;;;;;;7.60;4.82;;;24.60;64.80;;;;;;5005041;28;20056;-63
2021/07/09 11:19:15;;;;;;;5.72;4.93;;;24.70;65.10;;;;;;4998834;28;20054;-64
2021/07/09 11:21:51;;;;;;;5.00;4.50;;;24.60;65.20;;;;;;5006878;28;20046;-64
2021/07/09 11:24:28;;;;;;;7.30;5.05;;;24.70;65.30;;;;;;5003819;28;20585;-64
2021/07/09 11:27:06;;;;;;;5.88;4.85;;;24.70;65.30;;;;;;4995467;28;20041;-62
2021/07/09 11:29:44;;;;;;;5.90;4.57;;;24.80;65.40;;;;;;5010100;28;20128;-65
2021/07/09 11:32:19;;;;;;;5.43;4.35;;;24.80;65.40;;;;;;5009999;28;20475;-64
2021/07/09 11:34:52;;;;;;;6.05;4.88;;;24.80;65.20;;;;;;5006351;28;20137;-65
2021/07/09 11:37:22;;;;;;;5.03;4.55;;;24.90;65.40;;;;;;5003658;28;20076;-65
2021/07/09 11:39:52;;;;;;;4.97;4.47;;;24.90;65.40;;;;;;5007230;28;20136;-65
2021/07/09 11:42:22;;;;;;;5.15;4.05;;;25.00;65.40;;;;;;5008185;28;20042;-64
2021/07/09 11:44:52;;;;;;;4.57;4.07;;;25.00;65.30;;;;;;5006517;28;20168;-62
2021/07/09 11:47:23;;;;;;;;;;;25.10;65.20;;;;;;5004076;28;20298;-65
2021/07/09 11:49:54;;;;;;;5.95;4.15;;;25.10;65.10;;;;;;5004741;28;19980;-65
2021/07/09 11:52:26;;;;;;;5.15;4.03;;;25.20;64.90;;;;;;5008879;28;20061;-65
2021/07/09 11:54:55;;;;;;;4.72;4.20;;;25.20;64.60;;;;;;5013093;28;20081;-64
2021/07/09 11:57:26;;;;;;;4.57;4.18;;;25.30;64.40;;;;;;5004728;28;20053;-64
2021/07/09 12:00:10;;;;;;;4.45;4.05;;;25.30;64.10;;;;;;5004748;28;20050;-63
2021/07/09 12:02:37;;;;;;;4.50;4.10;;;25.40;64.10;;;;;;5007421;28;20050;-64
2021/07/09 12:05:07;;;;;;;4.47;4.07;;;25.40;64.20;;;;;;5007143;28;20050;-64
2021/07/09 12:07:37;;;;;;;4.25;3.85;;;25.40;63.30;;;;;;5012345;28;20053;-62
2021/07/09 12:10:07;;;;;;;;;;;25.50;62.90;;;;;;5014865;28;20085;-63
2021/07/09 12:12:42;;;;;;;6.20;4.18;;;25.60;62.50;;;;;;5008133;28;20008;-63
2021/07/09 12:15:32;;;;;;;4.15;3.75;;;25.60;62.10;;;;;;5006789;28;20061;-65
2021/07/09 12:18:07;;;;;;;5.07;3.95;;;25.70;61.70;;;;;;5009033;28;20053;-63
2021/07/09 12:20:40;;;;;;;4.97;3.85;;;25.70;61.40;;;;;;5005345;28;20096;-64
2021/07/09 12:23:11;;;;;;;6.45;4.53;;;25.70;61.10;;;;;;5012897;28;20077;-65
2021/07/09 12:25:41;;;;;;;5.32;3.78;;;25.80;61.00;;;;;;5015458;28;20107;-64
2021/07/09 12:28:14;;;;;;;5.80;3.88;;;25.80;61.00;;;;;;5007637;28;20698;-63
2021/07/09 12:30:45;;;;;;;3.78;3.47;;;25.80;60.90;;;;;;5007271;28;20050;-64
2021/07/09 12:33:30;;;;;;;4.07;3.60;;;25.80;60.60;;;;;;5007579;28;20108;-64
2021/07/09 12:36:04;;;;;;;3.88;3.50;;;25.90;60.40;;;;;;5008670;28;20524;-63
2021/07/09 12:38:34;;;;;;;4.72;4.18;;;25.80;60.40;;;;;;5007942;28;20133;-64
2021/07/09 12:41:03;;;;;;;4.22;3.88;;;25.80;60.20;;;;;;5007327;28;20141;-63
2021/07/09 12:43:49;;;;;;;5.18;4.07;;;25.80;60.10;;;;;;5007960;28;20135;-64
2021/07/09 12:46:27;;;;;;;4.43;3.60;;;25.90;60.30;;;;;;5007229;28;20483;-63
2021/07/09 12:49:07;;;;;;;4.15;3.38;;;25.90;60.30;;;;;;5006512;28;20053;-61
2021/07/09 12:51:36;;;;;;;4.85;4.32;;;25.90;60.50;;;;;;5006419;28;20112;-63
2021/07/09 12:54:11;;;;;;;4.32;3.78;;;25.90;60.60;;;;;;5008091;28;20046;-63
2021/07/09 12:56:41;;;;;;;4.10;3.70;;;25.90;60.30;;;;;;5004162;28;20041;-63
2021/07/09 12:59:12;;;;;;;3.78;3.47;;;25.90;60.40;;;;;;5007350;28;20764;-62
2021/07/09 13:01:43;;;;;;;4.53;3.83;;;25.90;60.50;;;;;;5007763;28;20098;-65